sensor_id;sensor_type;location;lat;lon;timestamp;pressure;altitude;pressure_sealevel;temperature;humidity
10720;BME280;5411;58.386;15.560;2023-01-23T00:00:17;102913.59;;;-2.38;100.00
10720;BME280;5411;58.386;15.560;2023-01-23T00:02:45;102910.34;;;-2.45;100.00
10720;BME280;5411;58.386;15.560;2023-01-23T00:05:14;102912.97;;;-2.45;100.00
10720;BME280;5411;58.386;15.560;2023-01-23T00:07:42;102913.78;;;-2.43;100.00
10720;BME280;5411;58.386;15.560;2023-01-23T00:10:11;102908.53;;;-2.43;100.00
10720;BME280;5411;58.386;15.560;2023-01-23T00:12:41;102911.97;;;-2.41;100.00
10720;BME280;5411;58.386;15.560;2023-01-23T00:15:12;102907.56;;;-2.40;100.00
10720;BME280;5411;58.386;15.560;2023-01-23T00:17:40;102911.16;;;-2.43;100.00
10720;BME280;5411;58.386;15.560;2023-01-23T00:20:10;102907.78;;;-2.46;100.00
10720;BME280;5411;58.386;15.560;2023-01-23T00:22:40;102905.25;;;-2.49;100.00
10720;BME280;5411;58.386;15.560;2023-01-23T00:25:08;102909.66;;;-2.50;100.00
10720;BME280;5411;58.386;15.560;2023-01-23T00:27:36;102899.91;;;-2.46;100.00
10720;BME280;5411;58.386;15.560;2023-01-23T00:30:08;102905.00;;;-2.42;100.00
10720;BME280;5411;58.386;15.560;2023-01-23T00:32:36;102906.56;;;-2.38;100.00
10720;BME280;5411;58.386;15.560;2023-01-23T00:35:08;102906.56;;;-2.38;100.00
10720;BME280;5411;58.386;15.560;2023-01-23T00:37:37;102911.97;;;-2.41;100.00
10720;BME280;5411;58.386;15.560;2023-01-23T00:40:07;102915.69;;;-2.48;100.00
10720;BME280;5411;58.386;15.560;2023-01-23T00:42:36;102917.66;;;-2.53;100.00
10720;BME280;5411;58.386;15.560;2023-01-23T00:45:10;102912.22;;;-2.48;100.00
10720;BME280;5411;58.386;15.560;2023-01-23T00:47:38;102911.31;;;-2.47;100.00
10720;BME280;5411;58.386;15.560;2023-01-23T00:50:07;102904.34;;;-2.48;100.00
10720;BME280;5411;58.386;15.560;2023-01-23T00:52:36;102917.34;;;-2.45;100.00
10720;BME280;5411;58.386;15.560;2023-01-23T00:55:05;102917.31;;;-2.44;100.00
10720;BME280;5411;58.386;15.560;2023-01-23T00:57:35;102914.56;;;-2.41;100.00
10720;BME280;5411;58.386;15.560;2023-01-23T01:00:04;102923.22;;;-2.39;100.00
10720;BME280;5411;58.386;15.560;2023-01-23T01:02:36;102925.06;;;-2.41;100.00
10720;BME280;5411;58.386;15.560;2023-01-23T01:05:07;102925.69;;;-2.34;100.00
10720;BME280;5411;58.386;15.560;2023-01-23T01:07:39;102929.03;;;-2.31;100.00
10720;BME280;5411;58.386;15.560;2023-01-23T01:10:11;102940.19;;;-2.26;100.00
10720;BME280;5411;58.386;15.560;2023-01-23T01:12:40;102933.19;;;-2.25;100.00
10720;BME280;5411;58.386;15.560;2023-01-23T01:15:10;102921.00;;;-2.26;100.00
10720;BME280;5411;58.386;15.560;2023-01-23T01:17:40;102920.09;;;-2.25;100.00
10720;BME280;5411;58.386;15.560;2023-01-23T01:20:10;102909.53;;;-2.24;100.00
10720;BME280;5411;58.386;15.560;2023-01-23T01:22:38;102914.69;;;-2.21;100.00
10720;BME280;5411;58.386;15.560;2023-01-23T01:25:10;102924.31;;;-2.21;100.00
10720;BME280;5411;58.386;15.560;2023-01-23T01:27:38;102927.91;;;-2.24;100.00
10720;BME280;5411;58.386;15.560;2023-01-23T01:30:09;102928.28;;;-2.34;100.00
10720;BME280;5411;58.386;15.560;2023-01-23T01:32:41;102921.41;;;-2.37;100.00
10720;BME280;5411;58.386;15.560;2023-01-23T01:35:10;102928.34;;;-2.36;100.00
10720;BME280;5411;58.386;15.560;2023-01-23T01:37:40;102932.72;;;-2.36;100.00
10720;BME280;5411;58.386;15.560;2023-01-23T01:40:24;102931.16;;;-2.40;100.00
10720;BME280;5411;58.386;15.560;2023-01-23T01:42:55;102924.50;;;-2.51;100.00
10720;BME280;5411;58.386;15.560;2023-01-23T01:48:33;102932.75;;;-2.61;100.00
10720;BME280;5411;58.386;15.560;2023-01-23T01:51:07;102930.25;;;-2.64;100.00
10720;BME280;5411;58.386;15.560;2023-01-23T01:53:39;102927.53;;;-2.61;100.00
10720;BME280;5411;58.386;15.560;2023-01-23T01:56:10;102925.59;;;-2.56;100.00
10720;BME280;5411;58.386;15.560;2023-01-23T01:58:41;102918.56;;;-2.54;100.00
10720;BME280;5411;58.386;15.560;2023-01-23T02:01:12;102913.19;;;-2.51;100.00
10720;BME280;5411;58.386;15.560;2023-01-23T02:03:42;102913.06;;;-2.48;100.00
10720;BME280;5411;58.386;15.560;2023-01-23T02:06:12;102916.72;;;-2.52;100.00
10720;BME280;5411;58.386;15.560;2023-01-23T02:08:46;102904.84;;;-2.62;100.00
10720;BME280;5411;58.386;15.560;2023-01-23T02:11:17;102906.81;;;-2.67;100.00
10720;BME280;5411;58.386;15.560;2023-01-23T02:13:51;102911.38;;;-2.74;100.00
10720;BME280;5411;58.386;15.560;2023-01-23T02:16:24;102909.09;;;-2.83;100.00
10720;BME280;5411;58.386;15.560;2023-01-23T02:19:03;102919.00;;;-2.93;100.00
10720;BME280;5411;58.386;15.560;2023-01-23T02:21:37;102923.78;;;-3.04;100.00
10720;BME280;5411;58.386;15.560;2023-01-23T02:24:13;102916.94;;;-3.08;100.00
10720;BME280;5411;58.386;15.560;2023-01-23T02:26:46;102930.19;;;-3.12;100.00
10720;BME280;5411;58.386;15.560;2023-01-23T02:29:15;102922.50;;;-3.18;100.00
10720;BME280;5411;58.386;15.560;2023-01-23T02:31:45;102923.69;;;-3.27;100.00
10720;BME280;5411;58.386;15.560;2023-01-23T02:34:15;102921.34;;;-3.35;100.00
10720;BME280;5411;58.386;15.560;2023-01-23T02:36:47;102923.28;;;-3.41;100.00
10720;BME280;5411;58.386;15.560;2023-01-23T02:39:17;102923.28;;;-3.41;100.00
10720;BME280;5411;58.386;15.560;2023-01-23T02:41:51;102920.56;;;-3.38;100.00
10720;BME280;5411;58.386;15.560;2023-01-23T02:44:22;102916.16;;;-3.36;100.00
10720;BME280;5411;58.386;15.560;2023-01-23T02:46:53;102921.38;;;-3.36;100.00
10720;BME280;5411;58.386;15.560;2023-01-23T02:49:22;102917.88;;;-3.35;100.00
10720;BME280;5411;58.386;15.560;2023-01-23T02:51:51;102911.66;;;-3.33;100.00
10720;BME280;5411;58.386;15.560;2023-01-23T02:54:22;102909.03;;;-3.33;100.00
10720;BME280;5411;58.386;15.560;2023-01-23T02:56:52;102906.50;;;-3.34;100.00
10720;BME280;5411;58.386;15.560;2023-01-23T02:59:24;102910.75;;;-3.32;100.00
10720;BME280;5411;58.386;15.560;2023-01-23T03:02:09;102904.38;;;-3.23;100.00
10720;BME280;5411;58.386;15.560;2023-01-23T03:04:38;102905.94;;;-3.19;100.00
10720;BME280;5411;58.386;15.560;2023-01-23T03:07:07;102903.16;;;-3.13;100.00
10720;BME280;5411;58.386;15.560;2023-01-23T03:09:35;102899.78;;;-3.16;100.00
10720;BME280;5411;58.386;15.560;2023-01-23T03:12:05;102895.19;;;-3.10;100.00
10720;BME280;5411;58.386;15.560;2023-01-23T03:14:35;102887.25;;;-3.07;100.00
10720;BME280;5411;58.386;15.560;2023-01-23T03:17:03;102888.81;;;-3.03;100.00
10720;BME280;5411;58.386;15.560;2023-01-23T03:19:32;102889.50;;;-2.96;100.00
10720;BME280;5411;58.386;15.560;2023-01-23T03:22:01;102890.13;;;-2.90;100.00
10720;BME280;5411;58.386;15.560;2023-01-23T03:24:30;102882.09;;;-2.85;100.00
10720;BME280;5411;58.386;15.560;2023-01-23T03:26:59;102880.25;;;-2.81;100.00
10720;BME280;5411;58.386;15.560;2023-01-23T03:29:29;102886.47;;;-2.85;100.00
10720;BME280;5411;58.386;15.560;2023-01-23T03:32:15;102879.53;;;-2.87;100.00
10720;BME280;5411;58.386;15.560;2023-01-23T03:34:44;102869.16;;;-2.90;100.00
10720;BME280;5411;58.386;15.560;2023-01-23T03:37:13;102865.88;;;-2.95;100.00
10720;BME280;5411;58.386;15.560;2023-01-23T03:39:43;102866.78;;;-2.96;100.00
10720;BME280;5411;58.386;15.560;2023-01-23T03:42:32;102885.34;;;-3.03;100.00
10720;BME280;5411;58.386;15.560;2023-01-23T03:45:04;102897.75;;;-3.08;100.00
10720;BME280;5411;58.386;15.560;2023-01-23T03:47:33;102901.34;;;-3.11;100.00
10720;BME280;5411;58.386;15.560;2023-01-23T03:50:02;102907.25;;;-3.06;100.00
10720;BME280;5411;58.386;15.560;2023-01-23T03:52:33;102903.94;;;-3.11;100.00
10720;BME280;5411;58.386;15.560;2023-01-23T03:55:04;102903.19;;;-3.14;100.00
10720;BME280;5411;58.386;15.560;2023-01-23T03:57:33;102901.66;;;-3.20;100.00
10720;BME280;5411;58.386;15.560;2023-01-23T04:00:04;102906.13;;;-3.24;100.00
10720;BME280;5411;58.386;15.560;2023-01-23T04:02:33;102918.31;;;-3.22;100.00
10720;BME280;5411;58.386;15.560;2023-01-23T04:05:02;102914.06;;;-3.27;100.00
10720;BME280;5411;58.386;15.560;2023-01-23T04:07:31;102907.13;;;-3.28;100.00
10720;BME280;5411;58.386;15.560;2023-01-23T04:10:00;102918.34;;;-3.24;100.00
10720;BME280;5411;58.386;15.560;2023-01-23T04:12:28;102928.66;;;-3.19;100.00
10720;BME280;5411;58.386;15.560;2023-01-23T04:14:57;102932.00;;;-3.14;100.00
10720;BME280;5411;58.386;15.560;2023-01-23T04:17:36;102930.28;;;-3.15;100.00
10720;BME280;5411;58.386;15.560;2023-01-23T04:20:09;102938.50;;;-3.26;100.00
10720;BME280;5411;58.386;15.560;2023-01-23T04:22:37;102933.50;;;-3.34;100.00
10720;BME280;5411;58.386;15.560;2023-01-23T04:25:06;102929.22;;;-3.36;100.00
10720;BME280;5411;58.386;15.560;2023-01-23T04:27:36;102938.84;;;-3.37;100.00
10720;BME280;5411;58.386;15.560;2023-01-23T04:30:05;102947.50;;;-3.35;100.00
10720;BME280;5411;58.386;15.560;2023-01-23T04:32:33;102940.56;;;-3.36;100.00
10720;BME280;5411;58.386;15.560;2023-01-23T04:35:04;102945.88;;;-3.39;100.00
10720;BME280;5411;58.386;15.560;2023-01-23T04:37:34;102957.13;;;-3.35;100.00
10720;BME280;5411;58.386;15.560;2023-01-23T04:40:03;102948.41;;;-3.36;100.00
10720;BME280;5411;58.386;15.560;2023-01-23T04:42:31;102958.75;;;-3.33;100.00
10720;BME280;5411;58.386;15.560;2023-01-23T04:44:59;102965.81;;;-3.35;100.00
10720;BME280;5411;58.386;15.560;2023-01-23T04:47:28;102966.03;;;-3.42;100.00
10720;BME280;5411;58.386;15.560;2023-01-23T04:49:57;102964.59;;;-3.51;100.00
10720;BME280;5411;58.386;15.560;2023-01-23T04:52:26;102955.06;;;-3.53;100.00
10720;BME280;5411;58.386;15.560;2023-01-23T04:54:55;102965.63;;;-3.56;100.00
10720;BME280;5411;58.386;15.560;2023-01-23T04:57:23;102976.28;;;-3.63;100.00
10720;BME280;5411;58.386;15.560;2023-01-23T04:59:53;102965.19;;;-3.71;100.00
10720;BME280;5411;58.386;15.560;2023-01-23T05:02:21;102957.59;;;-3.78;100.00
10720;BME280;5411;58.386;15.560;2023-01-23T05:04:49;102960.19;;;-3.78;100.00
10720;BME280;5411;58.386;15.560;2023-01-23T05:07:18;102957.59;;;-3.78;100.00
10720;BME280;5411;58.386;15.560;2023-01-23T05:09:47;102965.19;;;-3.71;100.00
10720;BME280;5411;58.386;15.560;2023-01-23T05:12:16;102955.53;;;-3.69;100.00
10720;BME280;5411;58.386;15.560;2023-01-23T05:14:44;102963.22;;;-3.63;100.00
10720;BME280;5411;58.386;15.560;2023-01-23T05:17:12;102967.41;;;-3.59;100.00
10720;BME280;5411;58.386;15.560;2023-01-23T05:19:41;102972.38;;;-3.49;100.00
10720;BME280;5411;58.386;15.560;2023-01-23T05:22:09;102970.41;;;-3.43;100.00
10720;BME280;5411;58.386;15.560;2023-01-23T05:24:38;102965.06;;;-3.38;100.00
10720;BME280;5411;58.386;15.560;2023-01-23T05:27:07;102960.63;;;-3.36;100.00
10720;BME280;5411;58.386;15.560;2023-01-23T05:29:36;102965.78;;;-3.33;100.00
10720;BME280;5411;58.386;15.560;2023-01-23T05:32:04;102958.63;;;-3.28;100.00
10720;BME280;5411;58.386;15.560;2023-01-23T05:34:33;102959.41;;;-3.26;100.00
10720;BME280;5411;58.386;15.560;2023-01-23T05:37:03;102965.38;;;-3.21;100.00
10720;BME280;5411;58.386;15.560;2023-01-23T05:39:32;102972.09;;;-3.14;100.00
10720;BME280;5411;58.386;15.560;2023-01-23T05:42:00;102969.50;;;-3.14;100.00
10720;BME280;5411;58.386;15.560;2023-01-23T05:44:32;102966.81;;;-3.12;100.00
10720;BME280;5411;58.386;15.560;2023-01-23T05:47:00;102965.16;;;-3.15;100.00
10720;BME280;5411;58.386;15.560;2023-01-23T05:49:30;102969.44;;;-3.12;100.00
10720;BME280;5411;58.386;15.560;2023-01-23T05:51:59;102975.53;;;-3.12;100.00
10720;BME280;5411;58.386;15.560;2023-01-23T05:54:28;102972.09;;;-3.14;100.00
10720;BME280;5411;58.386;15.560;2023-01-23T05:56:56;102972.16;;;-3.15;100.00
10720;BME280;5411;58.386;15.560;2023-01-23T05:59:28;102969.63;;;-3.18;100.00
10720;BME280;5411;58.386;15.560;2023-01-23T06:01:58;102980.19;;;-3.20;100.00
10720;BME280;5411;58.386;15.560;2023-01-23T06:04:26;102964.53;;;-3.21;100.00
10720;BME280;5411;58.386;15.560;2023-01-23T06:06:55;102966.28;;;-3.22;100.00
10720;BME280;5411;58.386;15.560;2023-01-23T06:09:24;102974.81;;;-3.17;100.00
10720;BME280;5411;58.386;15.560;2023-01-23T06:11:52;102970.44;;;-3.16;100.00
10720;BME280;5411;58.386;15.560;2023-01-23T06:14:21;102973.97;;;-3.17;100.00
10720;BME280;5411;58.386;15.560;2023-01-23T06:16:49;102987.09;;;-3.19;100.00
10720;BME280;5411;58.386;15.560;2023-01-23T06:19:19;102978.38;;;-3.19;100.00
10720;BME280;5411;58.386;15.560;2023-01-23T06:21:48;102975.03;;;-3.23;100.00
10720;BME280;5411;58.386;15.560;2023-01-23T06:24:17;102970.75;;;-3.26;100.00
10720;BME280;5411;58.386;15.560;2023-01-23T06:26:45;102973.50;;;-3.30;100.00
10720;BME280;5411;58.386;15.560;2023-01-23T06:29:14;102971.84;;;-3.33;100.00
10720;BME280;5411;58.386;15.560;2023-01-23T06:31:42;102972.94;;;-3.40;100.00
10720;BME280;5411;58.386;15.560;2023-01-23T06:34:12;102972.13;;;-3.42;100.00
10720;BME280;5411;58.386;15.560;2023-01-23T06:36:42;102961.88;;;-3.48;100.00
10720;BME280;5411;58.386;15.560;2023-01-23T06:39:13;102966.22;;;-3.47;100.00
10720;BME280;5411;58.386;15.560;2023-01-23T06:41:42;102966.03;;;-3.42;100.00
10720;BME280;5411;58.386;15.560;2023-01-23T06:44:10;102966.00;;;-3.41;100.00
10720;BME280;5411;58.386;15.560;2023-01-23T06:46:39;102969.34;;;-3.36;100.00
10720;BME280;5411;58.386;15.560;2023-01-23T06:49:09;102973.66;;;-3.35;100.00
10720;BME280;5411;58.386;15.560;2023-01-23T06:51:37;102967.53;;;-3.34;100.00
10720;BME280;5411;58.386;15.560;2023-01-23T06:54:07;102971.06;;;-3.35;100.00
10720;BME280;5411;58.386;15.560;2023-01-23T06:56:36;102977.41;;;-3.43;100.00
10720;BME280;5411;58.386;15.560;2023-01-23T06:59:05;102981.94;;;-3.48;100.00
10720;BME280;5411;58.386;15.560;2023-01-23T07:01:33;102982.84;;;-3.49;100.00
10720;BME280;5411;58.386;15.560;2023-01-23T07:04:03;102986.53;;;-3.56;100.00
10720;BME280;5411;58.386;15.560;2023-01-23T07:06:31;102991.03;;;-3.60;100.00
10720;BME280;5411;58.386;15.560;2023-01-23T07:09:00;102996.44;;;-3.66;100.00
10720;BME280;5411;58.386;15.560;2023-01-23T07:11:30;102990.44;;;-3.70;100.00
10720;BME280;5411;58.386;15.560;2023-01-23T07:13:59;102989.69;;;-3.73;100.00
10720;BME280;5411;58.386;15.560;2023-01-23T07:16:27;102992.34;;;-3.75;100.00
10720;BME280;5411;58.386;15.560;2023-01-23T07:18:56;102999.38;;;-3.77;100.00
10720;BME280;5411;58.386;15.560;2023-01-23T07:21:25;103000.31;;;-3.79;100.00
10720;BME280;5411;58.386;15.560;2023-01-23T07:23:53;102994.16;;;-3.77;100.00
10720;BME280;5411;58.386;15.560;2023-01-23T07:26:22;102992.22;;;-3.72;100.00
10720;BME280;5411;58.386;15.560;2023-01-23T07:28:52;102993.00;;;-3.68;100.00
10720;BME280;5411;58.386;15.560;2023-01-23T07:31:20;103001.59;;;-3.63;100.00
10720;BME280;5411;58.386;15.560;2023-01-23T07:33:49;103007.66;;;-3.63;100.00
10720;BME280;5411;58.386;15.560;2023-01-23T07:36:17;103002.34;;;-3.60;100.00
10720;BME280;5411;58.386;15.560;2023-01-23T07:38:45;103000.56;;;-3.59;100.00
10720;BME280;5411;58.386;15.560;2023-01-23T07:41:16;103006.72;;;-3.60;100.00
10720;BME280;5411;58.386;15.560;2023-01-23T07:43:44;103010.97;;;-3.58;100.00
10720;BME280;5411;58.386;15.560;2023-01-23T07:46:16;103016.63;;;-3.71;100.00
10720;BME280;5411;58.386;15.560;2023-01-23T07:48:45;103028.16;;;-3.77;100.00
10720;BME280;5411;58.386;15.560;2023-01-23T07:51:13;103025.16;;;-3.94;100.00
10720;BME280;5411;58.386;15.560;2023-01-23T07:53:41;103036.66;;;-4.00;100.00
10720;BME280;5411;58.386;15.560;2023-01-23T07:56:11;103036.72;;;-4.03;100.00
10720;BME280;5411;58.386;15.560;2023-01-23T07:58:40;103039.28;;;-4.00;100.00
10720;BME280;5411;58.386;15.560;2023-01-23T08:01:08;103047.91;;;-3.98;100.00
10720;BME280;5411;58.386;15.560;2023-01-23T08:03:39;103042.78;;;-4.01;100.00
10720;BME280;5411;58.386;15.560;2023-01-23T08:06:07;103050.75;;;-4.05;100.00
10720;BME280;5411;58.386;15.560;2023-01-23T08:08:36;103051.69;;;-4.08;100.00
10720;BME280;5411;58.386;15.560;2023-01-23T08:11:05;103059.50;;;-4.08;100.00
10720;BME280;5411;58.386;15.560;2023-01-23T08:13:36;103056.91;;;-4.08;100.00
10720;BME280;5411;58.386;15.560;2023-01-23T08:16:06;103055.03;;;-4.03;100.00
10720;BME280;5411;58.386;15.560;2023-01-23T08:18:39;103051.59;;;-4.05;100.00
10720;BME280;5411;58.386;15.560;2023-01-23T08:21:12;103050.84;;;-4.10;100.00
10720;BME280;5411;58.386;15.560;2023-01-23T08:23:41;103042.16;;;-4.10;100.00
10720;BME280;5411;58.386;15.560;2023-01-23T08:26:10;103039.38;;;-4.04;100.00
10720;BME280;5411;58.386;15.560;2023-01-23T08:28:43;103041.81;;;-3.98;100.00
10720;BME280;5411;58.386;15.560;2023-01-23T08:31:16;103046.09;;;-3.96;100.00
10720;BME280;5411;58.386;15.560;2023-01-23T08:33:45;103045.91;;;-3.88;100.00
10720;BME280;5411;58.386;15.560;2023-01-23T08:36:14;103031.22;;;-3.93;100.00
10720;BME280;5411;58.386;15.560;2023-01-23T08:38:42;103038.22;;;-3.94;100.00
10720;BME280;5411;58.386;15.560;2023-01-23T08:41:11;103040.06;;;-3.98;100.00
10720;BME280;5411;58.386;15.560;2023-01-23T08:43:40;103032.41;;;-4.04;100.00
10720;BME280;5411;58.386;15.560;2023-01-23T08:46:09;103037.03;;;-4.13;100.00
10720;BME280;5411;58.386;15.560;2023-01-23T08:48:38;103029.09;;;-4.10;100.00
10720;BME280;5411;58.386;15.560;2023-01-23T08:51:11;103027.25;;;-4.07;100.00
10720;BME280;5411;58.386;15.560;2023-01-23T08:53:43;103017.63;;;-4.05;100.00
10720;BME280;5411;58.386;15.560;2023-01-23T08:56:13;103026.28;;;-4.03;100.00
10720;BME280;5411;58.386;15.560;2023-01-23T08:58:43;103020.19;;;-4.03;100.00
10720;BME280;5411;58.386;15.560;2023-01-23T09:01:13;103018.44;;;-4.03;100.00
10720;BME280;5411;58.386;15.560;2023-01-23T09:03:42;103021.09;;;-4.04;100.00
10720;BME280;5411;58.386;15.560;2023-01-23T09:06:13;103024.59;;;-4.05;100.00
10720;BME280;5411;58.386;15.560;2023-01-23T09:08:42;103021.13;;;-4.06;100.00
10720;BME280;5411;58.386;15.560;2023-01-23T09:11:14;103013.16;;;-4.01;100.00
10720;BME280;5411;58.386;15.560;2023-01-23T09:13:44;103010.41;;;-3.97;100.00
10720;BME280;5411;58.386;15.560;2023-01-23T09:16:13;103010.25;;;-3.90;100.00
10720;BME280;5411;58.386;15.560;2023-01-23T09:18:42;103015.16;;;-3.80;100.00
10720;BME280;5411;58.386;15.560;2023-01-23T09:21:17;103021.91;;;-3.73;100.00
10720;BME280;5411;58.386;15.560;2023-01-23T09:23:45;103009.47;;;-3.65;100.00
10720;BME280;5411;58.386;15.560;2023-01-23T09:26:13;103012.88;;;-3.61;100.00
10720;BME280;5411;58.386;15.560;2023-01-23T09:28:45;103005.75;;;-3.58;100.00
10720;BME280;5411;58.386;15.560;2023-01-23T09:31:15;103009.16;;;-3.54;100.00
10720;BME280;5411;58.386;15.560;2023-01-23T09:33:44;103005.50;;;-3.48;100.00
10720;BME280;5411;58.386;15.560;2023-01-23T09:36:23;103001.84;;;-3.44;100.00
10720;BME280;5411;58.386;15.560;2023-01-23T09:39:08;103013.09;;;-3.41;100.00
10720;BME280;5411;58.386;15.560;2023-01-23T09:41:39;103007.00;;;-3.41;100.00
10720;BME280;5411;58.386;15.560;2023-01-23T09:44:12;103011.34;;;-3.40;100.00
10720;BME280;5411;58.386;15.560;2023-01-23T09:46:49;103014.75;;;-3.38;100.00
10720;BME280;5411;58.386;15.560;2023-01-23T09:49:23;103004.16;;;-3.34;100.00
10720;BME280;5411;58.386;15.560;2023-01-23T09:52:22;103005.25;;;-3.41;100.00
10720;BME280;5411;58.386;15.560;2023-01-23T09:54:54;102997.66;;;-3.48;100.00
10720;BME280;5411;58.386;15.560;2023-01-23T09:57:31;103001.53;;;-3.62;100.00
10720;BME280;5411;58.386;15.560;2023-01-23T10:00:09;102998.03;;;-3.61;100.00
10720;BME280;5411;58.386;15.560;2023-01-23T10:02:43;102994.25;;;-3.52;100.00
10720;BME280;5411;58.386;15.560;2023-01-23T10:05:13;102993.16;;;-3.45;100.00
10720;BME280;5411;58.386;15.560;2023-01-23T10:07:59;102979.16;;;-3.44;100.00
10720;BME280;5411;58.386;15.560;2023-01-23T10:10:54;102998.16;;;-3.37;100.00
10720;BME280;5411;58.386;15.560;2023-01-23T10:13:38;102989.25;;;-3.32;100.00
10720;BME280;5411;58.386;15.560;2023-01-23T10:16:20;102993.50;;;-3.28;100.00
10720;BME280;5411;58.386;15.560;2023-01-23T10:18:58;102994.47;;;-3.32;100.00
10720;BME280;5411;58.386;15.560;2023-01-23T10:21:32;102997.41;;;-3.41;100.00
10720;BME280;5411;58.386;15.560;2023-01-23T10:24:28;103003.69;;;-3.46;100.00
10720;BME280;5411;58.386;15.560;2023-01-23T10:27:16;102999.25;;;-3.44;100.00
10720;BME280;5411;58.386;15.560;2023-01-23T10:29:48;102990.44;;;-3.42;100.00
10720;BME280;5411;58.386;15.560;2023-01-23T10:32:23;102987.66;;;-3.36;100.00
10720;BME280;5411;58.386;15.560;2023-01-23T10:34:55;102980.78;;;-3.40;100.00
10720;BME280;5411;58.386;15.560;2023-01-23T10:37:35;102987.91;;;-3.45;100.00
10720;BME280;5411;58.386;15.560;2023-01-23T10:40:12;102982.91;;;-3.51;100.00
10720;BME280;5411;58.386;15.560;2023-01-23T10:42:41;102978.84;;;-3.61;100.00
10720;BME280;5411;58.386;15.560;2023-01-23T10:45:16;102980.69;;;-3.65;100.00
10720;BME280;5411;58.386;15.560;2023-01-23T10:47:47;102971.19;;;-3.67;100.00
10720;BME280;5411;58.386;15.560;2023-01-23T10:50:34;102960.81;;;-3.70;100.00
10720;BME280;5411;58.386;15.560;2023-01-23T10:53:07;102960.44;;;-3.58;100.00
10720;BME280;5411;58.386;15.560;2023-01-23T10:55:47;102959.97;;;-3.43;100.00
10720;BME280;5411;58.386;15.560;2023-01-23T10:58:28;102961.53;;;-3.37;100.00
10720;BME280;5411;58.386;15.560;2023-01-23T11:01:00;102948.28;;;-3.33;100.00
10720;BME280;5411;58.386;15.560;2023-01-23T11:03:31;102957.53;;;-3.21;100.00
10720;BME280;5411;58.386;15.560;2023-01-23T11:06:02;102962.44;;;-3.12;100.00
10720;BME280;5411;58.386;15.560;2023-01-23T11:08:33;102944.94;;;-3.10;100.00
10720;BME280;5411;58.386;15.560;2023-01-23T11:11:22;102941.50;;;-3.12;100.00
10720;BME280;5411;58.386;15.560;2023-01-23T11:14:04;102944.34;;;-3.19;100.00
10720;BME280;5411;58.386;15.560;2023-01-23T11:16:33;102952.38;;;-3.24;100.00
10720;BME280;5411;58.386;15.560;2023-01-23T11:19:15;102946.47;;;-3.31;100.00
10720;BME280;5411;58.386;15.560;2023-01-23T11:21:51;102946.66;;;-3.35;100.00
10720;BME280;5411;58.386;15.560;2023-01-23T11:24:27;102946.53;;;-3.32;100.00
10720;BME280;5411;58.386;15.560;2023-01-23T11:27:17;102948.28;;;-3.33;100.00
10720;BME280;5411;58.386;15.560;2023-01-23T11:29:54;102938.88;;;-3.38;100.00
10720;BME280;5411;58.386;15.560;2023-01-23T11:32:28;102931.81;;;-3.35;100.00
10720;BME280;5411;58.386;15.560;2023-01-23T11:35:08;102926.72;;;-3.39;100.00
10720;BME280;5411;58.386;15.560;2023-01-23T11:37:40;102932.53;;;-3.31;100.00
10720;BME280;5411;58.386;15.560;2023-01-23T11:40:19;102927.22;;;-3.28;100.00
10720;BME280;5411;58.386;15.560;2023-01-23T11:42:49;102930.63;;;-3.26;100.00
10720;BME280;5411;58.386;15.560;2023-01-23T11:45:31;102935.72;;;-3.21;100.00
10720;BME280;5411;58.386;15.560;2023-01-23T11:48:16;102932.78;;;-3.12;100.00
10720;BME280;5411;58.386;15.560;2023-01-23T11:50:48;102929.81;;;-3.02;100.00
10720;BME280;5411;58.386;15.560;2023-01-23T11:53:28;102927.81;;;-2.94;100.00
10720;BME280;5411;58.386;15.560;2023-01-23T11:56:42;102927.84;;;-2.95;100.00
10720;BME280;5411;58.386;15.560;2023-01-23T12:02:36;102921.63;;;-2.93;100.00
10720;BME280;5411;58.386;15.560;2023-01-23T12:05:40;102918.78;;;-2.85;100.00
10720;BME280;5411;58.386;15.560;2023-01-23T12:08:19;102931.00;;;-2.85;100.00
10720;BME280;5411;58.386;15.560;2023-01-23T12:11:00;102933.78;;;-2.90;100.00
10720;BME280;5411;58.386;15.560;2023-01-23T12:13:49;102924.19;;;-2.91;100.00
10720;BME280;5411;58.386;15.560;2023-01-23T12:16:28;102919.16;;;-2.96;100.00
10720;BME280;5411;58.386;15.560;2023-01-23T12:19:11;102924.75;;;-3.06;100.00
10720;BME280;5411;58.386;15.560;2023-01-23T12:21:49;102908.47;;;-3.16;100.00
10720;BME280;5411;58.386;15.560;2023-01-23T12:24:36;102910.28;;;-3.18;100.00
10720;BME280;5411;58.386;15.560;2023-01-23T12:27:15;102913.94;;;-3.22;100.00
10720;BME280;5411;58.386;15.560;2023-01-23T12:30:03;102908.97;;;-3.31;100.00
10720;BME280;5411;58.386;15.560;2023-01-23T12:32:50;102904.09;;;-3.42;100.00
10720;BME280;5411;58.386;15.560;2023-01-23T12:35:32;102904.38;;;-3.49;100.00
10720;BME280;5411;58.386;15.560;2023-01-23T12:38:10;102903.47;;;-3.48;100.00
10720;BME280;5411;58.386;15.560;2023-01-23T12:40:45;102896.53;;;-3.49;100.00
10720;BME280;5411;58.386;15.560;2023-01-23T12:43:33;102907.88;;;-3.50;100.00
10720;BME280;5411;58.386;15.560;2023-01-23T12:46:08;102909.69;;;-3.52;100.00
10720;BME280;5411;58.386;15.560;2023-01-23T12:48:42;102903.59;;;-3.53;100.00
10720;BME280;5411;58.386;15.560;2023-01-23T12:51:19;102907.03;;;-3.51;100.00
10720;BME280;5411;58.386;15.560;2023-01-23T12:53:52;102897.41;;;-3.50;100.00
10720;BME280;5411;58.386;15.560;2023-01-23T12:56:26;102895.72;;;-3.51;100.00
10720;BME280;5411;58.386;15.560;2023-01-23T12:59:04;102896.44;;;-3.46;100.00
10720;BME280;5411;58.386;15.560;2023-01-23T13:01:51;102895.31;;;-3.39;100.00
10720;BME280;5411;58.386;15.560;2023-01-23T13:04:40;102892.56;;;-3.35;100.00
10720;BME280;5411;58.386;15.560;2023-01-23T13:07:24;102890.56;;;-3.28;100.00
10720;BME280;5411;58.386;15.560;2023-01-23T13:10:13;102880.81;;;-3.23;100.00
10720;BME280;5411;58.386;15.560;2023-01-23T13:12:44;102896.63;;;-3.26;100.00